Weather at Timberland Shop Heliport

Public forecast

Using degrees Fahrenheit for public forecast. Weather courtesy of forecast.io.

Closest aviation weather report (METAR) to Timberland Shop Heliport

Closest report is Rogue Valley International Medford Airport, 14.7 nm (27.2 km) NW. Retrieved 2021/06/20 07:53 UTC (37 minutes ago):

KMFR 200753Z AUTO 24004KT 10SM CLR 23/10 A2991 RMK AO2 SLP115 T02330100 403440133

Closest aviation forecast (TAF) to Timberland Shop Heliport

Closest forecast is Rogue Valley International Medford Airport, 14.7 nm (27.2 km) NW. Retrieved 2021/06/20 06:22 UTC (2 hours ago):

TAF KMFR 200520Z 2006/2106 VRB03KT P6SM SKC FM202200 31009KT P6SM SKC